Time;durP1;ratioP1;P1;durP2;ratioP2;P2;SDS_P1;SDS_P2;PMS_P1;PMS_P2;Temp;Humidity;BMP_temperature;BMP_pressure;BME280_temperature;BME280_humidity;BME280_pressure;Samples;Min_cycle;Max_cycle;Signal;HPM_P1;HPM_P2
2021/12/13 00:02:33;;;;;;;51.00;33.15;;;;;;;-145.45;100.00;62759.84;5203075;28;20308;-90
2021/12/13 00:05:20;;;;;;;46.25;32.85;;;;;;;-145.45;100.00;62759.84;5222395;28;20042;-90
2021/12/13 00:08:00;;;;;;;45.28;31.98;;;;;;;-145.45;100.00;62759.84;5203944;28;20035;-90
2021/12/13 00:10:45;;;;;;;46.55;32.25;;;;;;;-145.45;100.00;62759.84;5236192;28;20046;-91
2021/12/13 00:13:36;;;;;;;43.13;30.85;;;;;;;-145.45;100.00;62759.84;5222199;28;20022;-90
2021/12/13 00:16:12;;;;;;;46.40;31.17;;;;;;;-145.45;100.00;62759.84;5203992;28;20038;-90
2021/12/13 00:18:47;;;;;;;45.35;32.63;;;;;;;-145.45;100.00;62759.84;5205567;28;20122;-90
2021/12/13 00:21:23;;;;;;;42.67;29.83;;;;;;;-145.45;100.00;62759.84;5212675;28;20041;-90
2021/12/13 00:24:00;;;;;;;39.03;31.17;;;;;;;-145.45;100.00;62759.84;5230536;28;20086;-90
2021/12/13 00:26:44;;;;;;;43.28;30.95;;;;;;;-145.45;100.00;62759.84;5210392;28;20082;-89
2021/12/13 00:29:26;;;;;;;42.00;29.50;;;;;;;-145.45;100.00;62759.84;5228707;28;20084;-89
2021/12/13 00:32:10;;;;;;;40.10;27.42;;;;;;;-145.45;100.00;62759.84;5194524;28;20086;-90
2021/12/13 00:34:53;;;;;;;39.88;28.08;;;;;;;-145.45;100.00;62759.84;5228085;28;20042;-90
2021/12/13 00:37:39;;;;;;;39.28;29.08;;;;;;;-145.45;100.00;62759.84;5213800;28;20038;-90
2021/12/13 00:40:23;;;;;;;45.40;29.02;;;;;;;-145.45;100.00;62759.84;5237771;28;20030;-90
2021/12/13 00:43:21;;;;;;;38.85;29.92;;;;;;;-145.45;100.00;62759.84;5228697;28;20148;-89
2021/12/13 00:46:00;;;;;;;40.58;27.92;;;;;;;-145.45;100.00;62759.84;5183722;28;20050;-89
2021/12/13 00:48:41;;;;;;;41.45;30.35;;;;;;;-145.45;100.00;62759.84;5233075;28;20061;-89
2021/12/13 00:51:28;;;;;;;42.47;29.88;;;;;;;-145.45;100.00;62759.84;5214612;28;20081;-90
2021/12/13 00:54:16;;;;;;;39.00;29.65;;;;;;;-145.45;100.00;62759.84;5207446;28;20450;-91
2021/12/13 00:57:10;;;;;;;46.10;30.52;;;;;;;-145.45;100.00;62759.84;5214393;28;20047;-90
2021/12/13 00:59:51;;;;;;;48.58;30.85;;;;;;;-145.45;100.00;62759.84;5210769;28;20030;-91
2021/12/13 01:03:00;;;;;;;45.00;31.35;;;;;;;-145.45;100.00;62759.84;5202082;28;20499;-91
2021/12/13 01:06:29;;;;;;;45.97;29.73;;;;;;;-145.45;100.00;62759.84;5217341;28;20044;-90
2021/12/13 01:09:51;;;;;;;41.65;31.85;;;;;;;-145.45;100.00;62759.84;5166721;28;20059;-91
2021/12/13 01:13:03;;;;;;;44.85;30.83;;;;;;;-145.45;100.00;62759.84;5151217;28;20040;-90
2021/12/13 01:15:49;;;;;;;50.15;32.72;;;;;;;-145.45;100.00;62759.84;5231574;28;20037;-90
2021/12/13 01:18:56;;;;;;;44.28;29.20;;;;;;;-145.45;100.00;62759.84;5226260;28;20113;-90
2021/12/13 01:22:26;;;;;;;44.50;29.73;;;;;;;-145.45;100.00;62759.84;5195529;28;20039;-90
2021/12/13 01:25:40;;;;;;;47.53;30.33;;;;;;;-145.45;100.00;62759.84;5180963;28;20047;-89
2021/12/13 01:28:56;;;;;;;52.83;31.85;;;;;;;-145.45;100.00;62759.84;5197395;28;20109;-90
2021/12/13 01:31:41;;;;;;;47.53;30.67;;;;;;;-145.45;100.00;62759.84;5183907;28;20079;-90
2021/12/13 01:34:14;;;;;;;50.13;31.48;;;;;;;-145.45;100.00;62759.84;5180215;28;20067;-90
2021/12/13 01:37:17;;;;;;;50.10;30.73;;;;;;;-145.45;100.00;62759.84;5180659;28;20289;-90
2021/12/13 01:40:06;;;;;;;47.97;29.88;;;;;;;-145.45;100.00;62759.84;5195188;28;20198;-90
2021/12/13 01:42:39;;;;;;;47.30;30.48;;;;;;;-145.45;100.00;62759.84;5196079;28;20111;-90
2021/12/13 01:45:15;;;;;;;51.35;31.88;;;;;;;-145.45;100.00;62759.84;5181240;28;20047;-89
2021/12/13 01:47:47;;;;;;;54.80;33.10;;;;;;;-145.45;100.00;62759.84;5196884;28;20049;-90
2021/12/13 01:50:30;;;;;;;55.53;34.08;;;;;;;-145.45;100.00;62759.84;5181756;28;20476;-90
2021/12/13 01:53:04;;;;;;;50.45;31.83;;;;;;;-145.45;100.00;62759.84;5180180;28;20050;-90
2021/12/13 01:55:56;;;;;;;55.20;33.58;;;;;;;-145.45;100.00;62759.84;5198943;28;20074;-90
2021/12/13 02:01:21;;;;;;;54.38;33.30;;;;;;;-145.45;100.00;62759.84;5259718;28;20048;-89
2021/12/13 02:03:55;;;;;;;53.05;34.17;;;;;;;-145.45;100.00;62759.84;5235801;28;20038;-89
2021/12/13 02:07:03;;;;;;;56.80;32.95;;;;;;;-145.45;100.00;62759.84;5236845;28;20048;-90
2021/12/13 02:09:51;;;;;;;63.13;35.10;;;;;;;-145.45;100.00;62759.84;5201743;28;20061;-90
2021/12/13 02:12:28;;;;;;;56.03;34.83;;;;;;;-145.45;100.00;62759.84;5230140;28;20035;-91
2021/12/13 02:17:58;;;;;;;55.00;34.67;;;;;;;-145.45;100.00;62759.84;5245016;28;20027;-90
2021/12/13 02:20:35;;;;;;;56.25;33.58;;;;;;;-145.45;100.00;62759.84;5237138;28;20045;-88
2021/12/13 02:23:10;;;;;;;55.40;33.67;;;;;;;-145.45;100.00;62759.84;5235227;28;20041;-90
2021/12/13 02:25:57;;;;;;;56.88;35.25;;;;;;;-145.45;100.00;62759.84;5238225;28;20088;-89
2021/12/13 02:28:38;;;;;;;56.75;33.10;;;;;;;-145.45;100.00;62759.84;5212283;28;20030;-89
2021/12/13 02:31:15;;;;;;;57.35;35.35;;;;;;;-145.45;100.00;62759.84;5207834;28;20944;-89
2021/12/13 02:33:58;;;;;;;62.30;35.88;;;;;;;-145.45;100.00;62759.84;5224589;28;20022;-89
2021/12/13 02:36:39;;;;;;;62.35;36.22;;;;;;;-145.45;100.00;62759.84;5228558;28;20042;-89
2021/12/13 02:39:37;;;;;;;54.05;32.17;;;;;;;-145.45;100.00;62759.84;5230333;28;20030;-89
2021/12/13 02:42:15;;;;;;;54.03;32.08;;;;;;;-145.45;100.00;62759.84;5217301;28;20046;-90
2021/12/13 02:44:52;;;;;;;59.47;36.03;;;;;;;-145.45;100.00;62759.84;5212413;28;20018;-90
2021/12/13 02:47:44;;;;;;;55.10;33.33;;;;;;;-145.45;100.00;62759.84;5209608;28;20097;-89
2021/12/13 02:50:23;;;;;;;61.13;35.47;;;;;;;-145.45;100.00;62759.84;5208433;28;20019;-89
2021/12/13 02:53:06;;;;;;;59.17;36.15;;;;;;;-145.45;100.00;62759.84;5209602;28;20038;-89
2021/12/13 02:55:40;;;;;;;61.78;35.00;;;;;;;-145.45;100.00;62759.84;5211888;28;20061;-89
2021/12/13 02:58:15;;;;;;;61.08;36.30;;;;;;;-145.45;100.00;62759.84;5223692;28;20153;-90
2021/12/13 03:01:10;;;;;;;59.05;35.60;;;;;;;-145.45;100.00;62759.84;5221461;28;20031;-90
2021/12/13 03:03:48;;;;;;;56.70;33.78;;;;;;;-145.45;100.00;62759.84;5223374;28;20027;-91
2021/12/13 03:06:25;;;;;;;59.53;34.25;;;;;;;-145.45;100.00;62759.84;5222924;28;20431;-90
2021/12/13 03:09:11;;;;;;;60.85;35.25;;;;;;;-145.45;100.00;62759.84;5209334;28;20042;-91
2021/12/13 03:11:45;;;;;;;57.42;33.95;;;;;;;-145.45;100.00;62759.84;5227356;28;20037;-91
2021/12/13 03:14:30;;;;;;;58.47;33.83;;;;;;;-145.45;100.00;62759.84;5232333;28;20527;-90
2021/12/13 03:17:16;;;;;;;62.10;35.92;;;;;;;-145.45;100.00;62759.84;5223776;28;20495;-90
2021/12/13 03:19:47;;;;;;;59.78;34.92;;;;;;;-145.45;100.00;62759.84;5208769;28;20033;-90
2021/12/13 03:22:38;;;;;;;63.97;35.15;;;;;;;-145.45;100.00;62759.84;5209567;28;20031;-91
2021/12/13 03:25:40;;;;;;;61.35;34.03;;;;;;;-145.45;100.00;62759.84;5215499;28;20041;-90
2021/12/13 03:28:49;;;;;;;59.70;32.78;;;;;;;-145.45;100.00;62759.84;5227620;28;20057;-91
2021/12/13 03:31:28;;;;;;;62.17;35.28;;;;;;;-145.45;100.00;62759.84;5205673;28;20037;-90
2021/12/13 03:34:15;;;;;;;63.85;34.92;;;;;;;-145.45;100.00;62759.84;5210353;28;20835;-90
2021/12/13 03:36:59;;;;;;;60.53;33.85;;;;;;;-145.45;100.00;62759.84;5235467;28;20037;-90
2021/12/13 03:39:59;;;;;;;59.95;35.67;;;;;;;-145.45;100.00;62759.84;5209211;28;20019;-91
2021/12/13 03:42:41;;;;;;;55.38;31.98;;;;;;;-145.45;100.00;62759.84;5226075;28;20054;-90
2021/12/13 03:45:21;;;;;;;55.15;33.65;;;;;;;-145.45;100.00;62759.84;5217169;28;20026;-89
2021/12/13 03:48:15;;;;;;;54.53;32.88;;;;;;;-145.45;100.00;62759.84;5208757;28;20018;-89
2021/12/13 03:50:57;;;;;;;58.88;32.67;;;;;;;-145.45;100.00;62759.84;5207020;28;20352;-89
2021/12/13 03:53:32;;;;;;;63.40;32.95;;;;;;;-145.45;100.00;62759.84;5223758;28;20034;-89
2021/12/13 03:56:11;;;;;;;54.97;30.48;;;;;;;-145.45;100.00;62759.84;5227430;28;20026;-89
2021/12/13 03:58:47;;;;;;;57.78;33.70;;;;;;;-145.45;100.00;62759.84;5208561;28;20031;-90
2021/12/13 04:01:29;;;;;;;56.03;34.42;;;;;;;-145.45;100.00;62759.84;5210716;28;20111;-89
2021/12/13 04:04:53;;;;;;;59.40;32.47;;;;;;;-145.45;100.00;62759.84;5203004;28;20034;-90
2021/12/13 04:07:36;;;;;;;56.92;32.60;;;;;;;-145.45;100.00;62759.84;5204731;28;20526;-90
2021/12/13 04:10:42;;;;;;;57.78;32.67;;;;;;;-145.45;100.00;62759.84;5234354;28;20537;-91
2021/12/13 04:13:23;;;;;;;52.63;32.03;;;;;;;-145.45;100.00;62759.84;5220868;28;20030;-90
2021/12/13 04:16:29;;;;;;;51.30;31.80;;;;;;;-145.45;100.00;62759.84;5232618;28;20481;-90
2021/12/13 04:19:12;;;;;;;52.50;31.95;;;;;;;-145.45;100.00;62759.84;5237976;28;20041;-89
2021/12/13 04:22:11;;;;;;;55.15;31.63;;;;;;;-145.45;100.00;62759.84;5227240;28;20105;-89
2021/12/13 04:25:07;;;;;;;53.75;30.65;;;;;;;-145.45;100.00;62759.84;5224200;28;20525;-89
2021/12/13 04:28:04;;;;;;;49.65;30.23;;;;;;;-145.45;100.00;62759.84;5246994;28;20053;-89
2021/12/13 04:30:56;;;;;;;50.40;29.55;;;;;;;-145.45;100.00;62759.84;5238501;28;20109;-89
2021/12/13 04:33:36;;;;;;;50.90;29.73;;;;;;;-145.45;100.00;62759.84;5248848;28;20115;-89
2021/12/13 04:36:18;;;;;;;50.42;29.98;;;;;;;-145.45;100.00;62759.84;5241438;28;20026;-89
2021/12/13 04:39:31;;;;;;;52.45;30.20;;;;;;;-145.45;100.00;62759.84;5224463;28;20026;-90
2021/12/13 04:42:16;;;;;;;49.42;29.35;;;;;;;-145.45;100.00;62759.84;5232886;28;20072;-90
2021/12/13 04:45:12;;;;;;;47.47;28.42;;;;;;;-145.45;100.00;62759.84;5217405;28;20407;-91
2021/12/13 04:48:14;;;;;;;46.42;28.33;;;;;;;-145.45;100.00;62759.84;5231707;28;20028;-91
2021/12/13 04:51:17;;;;;;;44.75;27.17;;;;;;;-145.45;100.00;62759.84;5222671;28;20104;-90
2021/12/13 04:53:52;;;;;;;43.25;28.58;;;;;;;-145.45;100.00;62759.84;5242911;28;20081;-90
2021/12/13 04:56:30;;;;;;;40.63;26.60;;;;;;;-145.45;100.00;62759.84;5244264;28;20054;-89
2021/12/13 04:59:11;;;;;;;49.33;27.10;;;;;;;-145.45;100.00;62759.84;5239910;28;20025;-89
2021/12/13 05:01:47;;;;;;;46.88;27.40;;;;;;;-145.45;100.00;62759.84;5232680;28;20037;-90
2021/12/13 05:04:21;;;;;;;45.90;27.73;;;;;;;-145.45;100.00;62759.84;5231005;28;20049;-89
2021/12/13 05:06:53;;;;;;;37.67;23.42;;;;;;;-145.45;100.00;62759.84;5223070;28;20034;-89
2021/12/13 05:09:28;;;;;;;40.83;26.10;;;;;;;-145.45;100.00;62759.84;5250176;28;20042;-90
2021/12/13 05:12:14;;;;;;;44.38;26.00;;;;;;;-145.45;100.00;62759.84;5256447;28;20034;-90
2021/12/13 05:14:50;;;;;;;39.63;25.85;;;;;;;-145.45;100.00;62759.84;5261153;28;20049;-90
2021/12/13 05:17:32;;;;;;;38.88;24.63;;;;;;;-145.45;100.00;62759.84;5254235;28;20069;-90
2021/12/13 05:20:20;;;;;;;39.70;25.58;;;;;;;-145.45;100.00;62759.84;5266217;28;20037;-89
2021/12/13 05:23:12;;;;;;;37.67;23.98;;;;;;;-145.45;100.00;62759.84;5251579;28;20026;-89
2021/12/13 05:25:52;;;;;;;36.70;24.10;;;;;;;-145.45;100.00;62759.84;5243969;28;20479;-89
2021/12/13 05:32:35;;;;;;;34.45;21.77;;;;;;;-145.45;100.00;62759.84;5143248;28;20076;-88
2021/12/13 05:35:50;;;;;;;37.88;25.40;;;;;;;-145.45;100.00;62759.84;5225004;28;20030;-89
2021/12/13 05:38:49;;;;;;;33.20;21.52;;;;;;;-145.45;100.00;62759.84;5181215;28;20043;-90
2021/12/13 05:42:06;;;;;;;32.30;22.10;;;;;;;-145.45;100.00;62759.84;5237105;28;20074;-89
2021/12/13 05:45:29;;;;;;;32.63;21.10;;;;;;;-145.45;100.00;62759.84;5191455;28;20434;-89
2021/12/13 05:48:20;;;;;;;32.45;21.77;;;;;;;-145.45;100.00;62759.84;5138878;28;20036;-89
2021/12/13 05:51:21;;;;;;;33.47;21.15;;;;;;;-145.45;100.00;62759.84;5217403;28;20026;-89
2021/12/13 05:54:19;;;;;;;30.45;21.85;;;;;;;-145.45;100.00;62759.84;5232665;28;20042;-89
2021/12/13 05:57:30;;;;;;;30.40;20.92;;;;;;;-145.45;100.00;62759.84;5226723;28;20117;-89
2021/12/13 06:00:16;;;;;;;31.42;21.55;;;;;;;-145.45;100.00;62759.84;5218424;28;20038;-89
2021/12/13 06:03:08;;;;;;;32.85;21.52;;;;;;;-145.45;100.00;62759.84;5231175;28;20033;-89
2021/12/13 06:05:52;;;;;;;29.45;21.52;;;;;;;-145.45;100.00;62759.84;5245140;28;20041;-89
2021/12/13 06:08:44;;;;;;;28.88;19.92;;;;;;;-145.45;100.00;62759.84;5230133;28;20042;-89
2021/12/13 06:11:41;;;;;;;29.58;20.65;;;;;;;-145.45;100.00;62759.84;5226497;28;20030;-89
2021/12/13 06:14:21;;;;;;;28.08;19.92;;;;;;;-145.45;100.00;62759.84;5227696;28;20034;-89
2021/12/13 06:20:29;;;;;;;32.72;20.30;;;;;;;-145.45;100.00;62759.84;5230625;28;20037;-87
2021/12/13 06:23:15;;;;;;;30.25;20.63;;;;;;;-145.45;100.00;62759.84;5228051;28;20025;-88
2021/12/13 06:26:08;;;;;;;26.85;19.42;;;;;;;-145.45;100.00;62759.84;5218612;28;20026;-88
2021/12/13 06:29:16;;;;;;;27.90;18.63;;;;;;;-145.45;100.00;62759.84;5224285;28;20025;-89
2021/12/13 06:31:50;;;;;;;29.42;19.45;;;;;;;-145.45;100.00;62759.84;5250294;28;20073;-89
2021/12/13 06:34:37;;;;;;;26.10;18.50;;;;;;;-145.45;100.00;62759.84;5228047;28;20026;-89
2021/12/13 06:37:14;;;;;;;25.52;17.65;;;;;;;-145.45;100.00;62759.84;5220026;28;20065;-89
2021/12/13 06:39:51;;;;;;;27.83;19.27;;;;;;;-145.45;100.00;62759.84;5248115;28;20109;-89
2021/12/13 06:42:46;;;;;;;27.17;17.83;;;;;;;-145.45;100.00;62759.84;5232650;28;20022;-89
2021/12/13 06:45:44;;;;;;;25.92;17.95;;;;;;;-145.45;100.00;62759.84;5237767;28;20117;-89
2021/12/13 06:48:16;;;;;;;28.08;17.85;;;;;;;-145.45;100.00;62759.84;5233578;28;20042;-89
2021/12/13 06:50:48;;;;;;;29.42;18.55;;;;;;;-145.45;100.00;62759.84;5235850;28;20115;-89
2021/12/13 06:53:28;;;;;;;25.75;18.15;;;;;;;-145.45;100.00;62759.84;5228869;28;20045;-88
2021/12/13 06:56:30;;;;;;;27.75;17.27;;;;;;;-145.45;100.00;62759.84;5226675;28;20038;-88
2021/12/13 06:59:10;;;;;;;25.45;16.52;;;;;;;-145.45;100.00;62759.84;5243656;28;20502;-88
2021/12/13 07:02:33;;;;;;;22.77;16.98;;;;;;;-145.45;100.00;62759.84;5236922;28;20452;-88
2021/12/13 07:05:38;;;;;;;23.33;16.63;;;;;;;-145.45;100.00;62759.84;5213353;28;20100;-88
2021/12/13 07:08:19;;;;;;;25.52;17.23;;;;;;;-145.45;100.00;62759.84;5232483;28;20608;-87
2021/12/13 07:10:51;;;;;;;28.67;18.25;;;;;;;-145.45;100.00;62759.84;5230587;28;20075;-87
2021/12/13 07:13:22;;;;;;;25.00;17.45;;;;;;;-145.45;100.00;62759.84;5242976;28;20026;-88
2021/12/13 07:16:21;;;;;;;21.58;16.92;;;;;;;-145.45;100.00;62759.84;5232092;28;20033;-88
2021/12/13 07:23:14;;;;;;;26.27;16.45;;;;;;;-145.45;100.00;62759.84;5233502;28;20498;-89
2021/12/13 07:26:04;;;;;;;;;;;;;;;;;;;;;
2021/12/13 07:28:36;;;;;;;25.00;17.42;;;;;;;-145.45;100.00;62759.84;5239829;28;40256;-86
2021/12/13 07:31:17;;;;;;;25.05;16.73;;;;;;;-145.45;100.00;62759.84;5217288;28;20026;-86
2021/12/13 07:33:48;;;;;;;25.90;17.15;;;;;;;-145.45;100.00;62759.84;5208684;28;20037;-86
2021/12/13 07:36:26;;;;;;;24.98;16.38;;;;;;;-145.45;100.00;62759.84;5234443;28;20030;-86
2021/12/13 07:39:15;;;;;;;22.23;16.35;;;;;;;-145.45;100.00;62759.84;5222551;28;20062;-86
2021/12/13 07:42:09;;;;;;;24.13;17.15;;;;;;;-145.45;100.00;62759.84;5223981;28;20030;-85
2021/12/13 07:44:51;;;;;;;22.33;16.40;;;;;;;-145.45;100.00;62759.84;5222639;28;20085;-85
2021/12/13 07:47:31;;;;;;;23.20;16.45;;;;;;;-145.45;100.00;62759.84;5240025;28;20485;-86
2021/12/13 07:50:22;;;;;;;23.13;16.30;;;;;;;-145.45;100.00;62759.84;5240954;28;20072;-85
2021/12/13 07:53:13;;;;;;;25.25;17.30;;;;;;;-145.45;100.00;62759.84;5242165;28;20297;-85
2021/12/13 07:58:50;;;;;;;24.95;16.42;;;;;;;-145.45;100.00;62759.84;5223705;28;20049;-86
2021/12/13 08:01:29;;;;;;;24.33;16.80;;;;;;;-145.45;100.00;62759.84;5222778;28;20018;-86
2021/12/13 08:04:13;;;;;;;22.83;16.35;;;;;;;-145.45;100.00;62759.84;5234994;28;20042;-86
2021/12/13 08:07:13;;;;;;;21.92;16.33;;;;;;;-145.45;100.00;62759.84;5236199;28;20062;-86
2021/12/13 08:09:58;;;;;;;22.88;15.82;;;;;;;-145.45;100.00;62759.84;5221034;28;20073;-86
2021/12/13 08:12:35;;;;;;;23.23;17.15;;;;;;;-145.45;100.00;62759.84;5255056;28;20022;-85
2021/12/13 08:15:43;;;;;;;25.00;16.90;;;;;;;-145.45;100.00;62759.84;5267506;28;20080;-86
2021/12/13 08:18:36;;;;;;;24.52;16.10;;;;;;;-145.45;100.00;62759.84;5256343;28;20030;-85
2021/12/13 08:21:23;;;;;;;22.23;15.32;;;;;;;-145.45;100.00;62759.84;5249032;28;20030;-86
2021/12/13 08:24:16;;;;;;;21.80;15.23;;;;;;;-145.45;100.00;62759.84;5224708;28;20081;-86
2021/12/13 08:27:23;;;;;;;20.30;14.80;;;;;;;-145.45;100.00;62759.84;5228569;28;20037;-86
2021/12/13 08:30:42;;;;;;;25.90;15.32;;;;;;;-145.45;100.00;62759.84;5184253;28;20035;-86
2021/12/13 08:33:36;;;;;;;20.52;14.52;;;;;;;-145.45;100.00;62759.84;5231253;28;20156;-86
2021/12/13 08:36:17;;;;;;;20.10;15.27;;;;;;;-145.45;100.00;62759.84;5223475;28;20491;-86
2021/12/13 08:39:47;;;;;;;20.33;15.43;;;;;;;-145.45;100.00;62759.84;5224454;28;20121;-86
2021/12/13 08:42:42;;;;;;;18.17;13.95;;;;;;;-145.45;100.00;62759.84;5174767;28;20415;-86
2021/12/13 08:45:17;;;;;;;17.73;14.15;;;;;;;-145.45;100.00;62759.84;5186621;28;20049;-86
2021/12/13 08:48:24;;;;;;;19.95;15.90;;;;;;;-145.45;100.00;62759.84;5240365;28;20018;-87
2021/12/13 08:51:02;;;;;;;19.98;14.48;;;;;;;-145.45;100.00;62759.84;5217969;28;20550;-87
2021/12/13 08:53:45;;;;;;;19.30;15.48;;;;;;;-145.45;100.00;62759.84;5240532;28;20042;-87
2021/12/13 08:56:23;;;;;;;19.48;14.90;;;;;;;-145.45;100.00;62759.84;5217815;28;20487;-87
2021/12/13 08:59:18;;;;;;;20.42;15.93;;;;;;;-145.45;100.00;62759.84;5223010;28;20088;-86
2021/12/13 09:02:06;;;;;;;18.67;13.93;;;;;;;-145.45;100.00;62759.84;5222826;28;20954;-87
2021/12/13 09:04:53;;;;;;;17.63;15.48;;;;;;;-145.45;100.00;62759.84;5218828;28;20521;-87
2021/12/13 09:07:30;;;;;;;19.10;14.75;;;;;;;-145.45;100.00;62759.84;5200945;28;20074;-88
2021/12/13 09:10:33;;;;;;;18.30;14.02;;;;;;;-145.45;100.00;62759.84;5239260;28;20112;-88
2021/12/13 09:13:52;;;;;;;19.50;15.05;;;;;;;-145.45;100.00;62759.84;5219497;28;20041;-88
2021/12/13 09:17:06;;;;;;;19.00;14.38;;;;;;;-145.45;100.00;62759.84;5236394;28;20502;-88
2021/12/13 09:19:44;;;;;;;18.95;14.35;;;;;;;-145.45;100.00;62759.84;5202929;28;20480;-88
2021/12/13 09:22:30;;;;;;;18.95;14.60;;;;;;;-145.45;100.00;62759.84;5234690;28;20026;-88
2021/12/13 09:25:34;;;;;;;18.93;14.73;;;;;;;-145.45;100.00;62759.84;5221826;28;20022;-87
2021/12/13 09:31:42;;;;;;;20.77;14.57;;;;;;;-145.45;100.00;62759.84;5153136;28;20027;-87
2021/12/13 09:35:09;;;;;;;;;;;;;;;;;;;;;
2021/12/13 09:38:17;;;;;;;16.77;13.23;;;;;;;-145.45;100.00;62759.84;5200887;28;42803;-88
2021/12/13 09:41:33;;;;;;;16.70;13.73;;;;;;;-145.45;100.00;62759.84;5181544;28;20046;-87
2021/12/13 09:47:48;;;;;;;19.38;14.45;;;;;;;-145.45;100.00;62759.84;5181834;28;20408;-87
2021/12/13 09:50:47;;;;;;;17.38;13.30;;;;;;;-145.45;100.00;62759.84;5182065;28;20602;-87
2021/12/13 09:53:26;;;;;;;14.32;12.75;;;;;;;-145.45;100.00;62759.84;5200678;28;20030;-87
2021/12/13 09:56:25;;;;;;;16.00;12.88;;;;;;;-145.45;100.00;62759.84;5218469;28;20478;-86
2021/12/13 09:59:10;;;;;;;18.25;12.52;;;;;;;-145.45;100.00;62759.84;5204500;28;20046;-86
2021/12/13 10:01:54;;;;;;;16.23;13.13;;;;;;;-145.45;100.00;62759.84;5201094;28;20149;-87
2021/12/13 10:04:39;;;;;;;14.25;12.75;;;;;;;-145.45;100.00;62759.84;5208238;28;20554;-87
2021/12/13 10:07:25;;;;;;;15.25;12.30;;;;;;;-145.45;100.00;62759.84;5228282;28;20042;-87
2021/12/13 10:10:28;;;;;;;16.23;11.93;;;;;;;-145.45;100.00;62759.84;5230439;28;20042;-87
2021/12/13 10:13:15;;;;;;;13.70;11.07;;;;;;;-145.45;100.00;62759.84;5208924;28;20423;-88
2021/12/13 10:15:58;;;;;;;12.82;10.95;;;;;;;-145.45;100.00;62759.84;5232388;28;20022;-87
2021/12/13 10:18:44;;;;;;;12.52;10.68;;;;;;;-145.45;100.00;62759.84;5236767;28;20068;-86
2021/12/13 10:21:51;;;;;;;16.17;11.23;;;;;;;-145.45;100.00;62759.84;5229489;28;20034;-88
2021/12/13 10:24:37;;;;;;;11.93;10.63;;;;;;;-145.45;100.00;62759.84;5228010;28;20561;-87
2021/12/13 10:27:15;;;;;;;11.88;10.23;;;;;;;-145.45;100.00;62759.84;5227125;28;20048;-86
2021/12/13 10:30:05;;;;;;;10.70;9.50;;;;;;;-145.45;100.00;62759.84;5228675;28;20033;-87
2021/12/13 10:33:12;;;;;;;;;;;;;;;;;;;;;
2021/12/13 10:36:28;;;;;;;13.90;9.80;;;;;;;-145.45;100.00;62759.84;5247035;28;43027;-86
2021/12/13 10:39:32;;;;;;;13.43;9.00;;;;;;;-145.45;100.00;62759.84;5237858;28;20744;-87
2021/12/13 10:42:26;;;;;;;11.35;9.00;;;;;;;-145.45;100.00;62759.84;5239506;28;20061;-86
2021/12/13 10:45:23;;;;;;;12.38;8.70;;;;;;;-145.45;100.00;62759.84;5227765;28;20037;-87
2021/12/13 10:48:44;;;;;;;9.85;8.90;;;;;;;-145.45;100.00;62759.84;5228371;28;20476;-88
2021/12/13 10:51:42;;;;;;;10.43;8.32;;;;;;;-145.45;100.00;62759.84;5224082;28;20070;-86
2021/12/13 10:54:41;;;;;;;10.65;8.82;;;;;;;-145.45;100.00;62759.84;5243027;28;20125;-85
2021/12/13 10:57:48;;;;;;;;;;;;;;;;;;;;;
2021/12/13 11:00:29;;;;;;;10.10;9.00;;;;;;;-145.45;100.00;62759.84;5241919;28;41141;-86
2021/12/13 11:03:42;;;;;;;10.65;8.82;;;;;;;-145.45;100.00;62759.84;5242812;28;20081;-86
2021/12/13 11:06:23;;;;;;;10.40;7.47;;;;;;;-145.45;100.00;62759.84;5225815;28;20038;-86
2021/12/13 11:09:21;;;;;;;9.10;7.97;;;;;;;-145.45;100.00;62759.84;5249708;28;20029;-85
2021/12/13 11:12:03;;;;;;;11.57;8.27;;;;;;;-145.45;100.00;62759.84;5265097;28;20025;-86
2021/12/13 11:14:41;;;;;;;9.77;8.25;;;;;;;-145.45;100.00;62759.84;5263620;28;20021;-85
2021/12/13 11:17:20;;;;;;;10.27;7.95;;;;;;;-145.45;100.00;62759.84;5245420;28;20076;-86
2021/12/13 11:19:59;;;;;;;9.48;8.07;;;;;;;-145.45;100.00;62759.84;5231651;28;20999;-87
2021/12/13 11:22:32;;;;;;;8.90;7.90;;;;;;;-145.45;100.00;62759.84;5231162;28;20026;-86
2021/12/13 11:25:35;;;;;;;10.82;7.90;;;;;;;-145.45;100.00;62759.84;5248582;28;20064;-86
2021/12/13 11:28:28;;;;;;;;;;;;;;;;;;;;;
2021/12/13 11:31:23;;;;;;;10.77;7.57;;;;;;;-145.45;100.00;62759.84;5241091;28;42739;-87
2021/12/13 11:34:19;;;;;;;9.38;6.93;;;;;;;-145.45;100.00;62759.84;5233194;28;20132;-86
2021/12/13 11:37:21;;;;;;;7.72;6.30;;;;;;;-145.45;100.00;62759.84;5211728;28;20506;-86
2021/12/13 11:44:04;;;;;;;8.00;7.20;;;;;;;-145.45;100.00;62759.84;5248209;28;20838;-87
2021/12/13 11:47:12;;;;;;;9.25;7.43;;;;;;;-145.45;100.00;62759.84;5243670;28;20068;-86
2021/12/13 11:50:41;;;;;;;;;;;;;;;;;;;;;
2021/12/13 11:53:39;;;;;;;7.93;6.90;;;;;;;-145.45;100.00;62759.84;5269976;28;41454;-86
2021/12/13 11:56:47;;;;;;;8.02;7.00;;;;;;;-145.45;100.00;62759.84;5223447;28;20394;-86
2021/12/13 11:59:51;;;;;;;8.00;6.50;;;;;;;-145.45;100.00;62759.84;5223759;28;20029;-85
2021/12/13 12:03:05;;;;;;;9.68;7.03;;;;;;;-145.45;100.00;62759.84;5241657;28;20030;-87
2021/12/13 12:10:15;;;;;;;8.40;6.75;;;;;;;-145.45;100.00;62759.84;5240474;28;20463;-86
2021/12/13 12:12:53;;;;;;;7.25;6.32;;;;;;;-145.45;100.00;62759.84;5176993;28;20051;-87
2021/12/13 12:15:52;;;;;;;11.48;6.95;;;;;;;-145.45;100.00;62759.84;5184425;28;20487;-88
2021/12/13 12:18:37;;;;;;;8.00;6.72;;;;;;;-145.45;100.00;62759.84;5221382;28;20387;-88
2021/12/13 12:21:40;;;;;;;7.47;6.65;;;;;;;-145.45;100.00;62759.84;5211095;28;20030;-88
2021/12/13 12:24:42;;;;;;;9.68;6.25;;;;;;;-145.45;100.00;62759.84;5212970;28;20388;-88
2021/12/13 12:27:52;;;;;;;6.70;6.00;;;;;;;-145.45;100.00;62759.84;5236354;28;20042;-87
2021/12/13 12:31:02;;;;;;;7.45;5.93;;;;;;;-145.45;100.00;62759.84;5224213;28;20029;-87
2021/12/13 12:34:19;;;;;;;8.00;6.32;;;;;;;-145.45;100.00;62759.84;5219947;28;20038;-87
2021/12/13 12:36:56;;;;;;;7.85;5.72;;;;;;;-145.45;100.00;62759.84;5222887;28;20041;-86
2021/12/13 12:40:06;;;;;;;6.93;5.97;;;;;;;-145.45;100.00;62759.84;5241795;28;20022;-86
2021/12/13 12:42:43;;;;;;;6.70;5.47;;;;;;;-145.45;100.00;62759.84;5241100;28;20021;-86
2021/12/13 12:45:30;;;;;;;7.20;6.15;;;;;;;-145.45;100.00;62759.84;5215541;28;20030;-86
2021/12/13 12:48:14;;;;;;;6.68;5.97;;;;;;;-145.45;100.00;62759.84;5223781;28;20105;-86
2021/12/13 12:50:57;;;;;;;7.05;5.40;;;;;;;-145.45;100.00;62759.84;5228890;28;20030;-86
2021/12/13 12:54:22;;;;;;;8.25;6.32;;;;;;;-145.45;100.00;62759.84;5220775;28;20038;-86
2021/12/13 12:57:07;;;;;;;6.72;5.82;;;;;;;-145.45;100.00;62759.84;5236046;28;20368;-87
2021/12/13 12:59:40;;;;;;;9.35;6.60;;;;;;;-145.45;100.00;62759.84;5221976;28;20129;-86
2021/12/13 13:02:21;;;;;;;6.55;5.70;;;;;;;-145.45;100.00;62759.84;5240361;28;20029;-87
2021/12/13 13:05:06;;;;;;;5.72;5.13;;;;;;;-145.45;100.00;62759.84;5220549;28;20375;-86
2021/12/13 13:08:11;;;;;;;8.10;5.28;;;;;;;-145.45;100.00;62759.84;5209922;28;20026;-87
2021/12/13 13:14:10;;;;;;;6.05;5.22;;;;;;;-145.45;100.00;62759.84;5240738;28;20037;-87
2021/12/13 13:17:34;;;;;;;7.82;5.40;;;;;;;-145.45;100.00;62759.84;5222336;28;20026;-88
2021/12/13 13:20:19;;;;;;;6.35;5.22;;;;;;;-145.45;100.00;62759.84;5159714;28;20050;-87
2021/12/13 13:23:00;;;;;;;6.32;5.10;;;;;;;-145.45;100.00;62759.84;5156091;28;20062;-86
2021/12/13 13:25:48;;;;;;;7.72;5.38;;;;;;;-145.45;100.00;62759.84;5183635;28;20084;-86
2021/12/13 13:28:30;;;;;;;6.63;5.30;;;;;;;-145.45;100.00;62759.84;5219666;28;20098;-86